Aviation Digital Data Service (ADDS)

Output produced by TAFs form (2342 UTC 18 July 2018)
found at http://www.aviationweather.gov/adds/tafs/
 
RJSF 182300Z VRB02KT 5000 BR FEW050 BKN/// 26/26 Q1013
TAF RJSF 182308Z 1900/2006 20003KT 9999 FEW020 SCT040 
     TEMPO 1915/1921 4000 BR FEW005 BKN008 BKN015 
     BECMG 1921/2000 36005KT